createdAt,value
2022-12-25T00:01:55.495Z,11.38
2022-12-25T00:04:23.373Z,10.18
2022-12-25T00:06:50.999Z,5.80
2022-12-25T00:09:18.610Z,5.67
2022-12-25T00:11:46.447Z,8.45
2022-12-25T00:14:13.978Z,9.23
2022-12-25T00:16:41.555Z,6.55
2022-12-25T00:19:09.414Z,7.82
2022-12-25T00:21:36.929Z,5.20
2022-12-25T00:24:04.645Z,5.75
2022-12-25T00:26:32.535Z,7.15
2022-12-25T00:29:00.131Z,9.73
2022-12-25T00:31:27.862Z,5.18
2022-12-25T00:33:55.853Z,4.90
2022-12-25T00:36:23.881Z,8.55
2022-12-25T00:38:51.525Z,8.23
2022-12-25T00:41:40.320Z,7.22
2022-12-25T00:44:09.960Z,7.40
2022-12-25T00:46:37.871Z,8.27
2022-12-25T00:49:05.977Z,5.65
2022-12-25T00:51:33.639Z,6.05
2022-12-25T00:54:01.788Z,6.80
2022-12-25T00:56:29.400Z,4.62
2022-12-25T00:58:57.305Z,8.60
2022-12-25T01:01:25.268Z,6.25
2022-12-25T01:03:52.926Z,6.47
2022-12-25T01:06:20.441Z,8.50
2022-12-25T01:09:06.526Z,4.45
2022-12-25T01:11:34.175Z,5.70
2022-12-25T01:14:01.989Z,6.12
2022-12-25T01:16:29.587Z,7.25
2022-12-25T01:18:57.276Z,5.37
2022-12-25T01:21:25.362Z,5.12
2022-12-25T01:23:53.375Z,5.27
2022-12-25T01:26:22.629Z,5.75
2022-12-25T01:28:51.088Z,5.10
2022-12-25T01:31:21.115Z,10.32
2022-12-25T01:33:49.136Z,6.90
2022-12-25T01:36:22.651Z,5.30
2022-12-25T01:38:51.517Z,10.07
2022-12-25T01:41:22.263Z,7.93
2022-12-25T01:43:57.359Z,5.87
2022-12-25T01:46:25.269Z,5.50
2022-12-25T01:48:54.367Z,7.23
2022-12-25T01:51:32.045Z,4.85
2022-12-25T01:54:02.530Z,6.87
2022-12-25T01:56:30.617Z,7.80
2022-12-25T01:58:59.449Z,8.48
2022-12-25T02:01:27.344Z,8.13
2022-12-25T02:04:00.213Z,8.80
2022-12-25T02:06:30.657Z,9.18
2022-12-25T02:08:59.337Z,7.43
2022-12-25T02:11:45.801Z,7.65
2022-12-25T02:14:13.684Z,6.77
2022-12-25T02:16:57.941Z,12.02
2022-12-25T02:19:52.612Z,9.38
2022-12-25T02:22:30.561Z,8.75
2022-12-25T02:25:04.890Z,8.18
2022-12-25T02:27:53.493Z,8.73
2022-12-25T02:30:22.189Z,8.95
2022-12-25T02:33:19.856Z,8.20
2022-12-25T02:35:51.498Z,8.73
2022-12-25T02:38:27.593Z,6.45
2022-12-25T02:40:58.589Z,5.50
2022-12-25T02:43:58.069Z,12.25
2022-12-25T02:46:46.049Z,10.05
2022-12-25T02:49:35.793Z,6.37
2022-12-25T02:52:30.404Z,6.18
2022-12-25T02:55:23.574Z,10.20
2022-12-25T02:58:11.489Z,6.57
2022-12-25T03:01:00.456Z,8.45
2022-12-25T03:03:49.587Z,6.82
2022-12-25T03:06:37.542Z,7.10
2022-12-25T03:09:26.309Z,6.50
2022-12-25T03:12:03.143Z,8.70
2022-12-25T03:14:49.653Z,6.87
2022-12-25T03:17:17.248Z,6.57
2022-12-25T03:20:03.891Z,8.05
2022-12-25T03:22:51.671Z,9.37
2022-12-25T03:25:38.114Z,10.40
2022-12-25T03:28:06.217Z,5.97
2022-12-25T03:31:00.729Z,7.20
2022-12-25T03:34:09.168Z,5.70
2022-12-25T03:36:50.755Z,8.57
2022-12-25T03:39:53.732Z,7.78
2022-12-25T03:42:56.718Z,7.10
2022-12-25T03:45:47.992Z,6.32
2022-12-25T03:48:35.566Z,5.10
2022-12-25T03:51:26.842Z,9.57
2022-12-25T03:54:16.789Z,6.55
2022-12-25T03:57:03.199Z,8.80
2022-12-25T03:59:49.675Z,7.20
2022-12-25T04:02:35.749Z,5.05
2022-12-25T04:05:22.409Z,7.33
2022-12-25T04:08:08.915Z,8.15
2022-12-25T04:10:55.426Z,8.90
2022-12-25T04:13:46.018Z,5.72
2022-12-25T04:16:32.742Z,8.02
2022-12-25T04:19:19.218Z,5.87
2022-12-25T04:22:05.660Z,6.28
2022-12-25T04:24:51.588Z,9.23
2022-12-25T04:27:38.217Z,8.68
2022-12-25T04:30:25.163Z,5.60
2022-12-25T04:33:16.460Z,9.47
2022-12-25T04:36:08.663Z,7.53
2022-12-25T04:38:37.781Z,9.23
2022-12-25T04:41:05.912Z,6.10
2022-12-25T04:43:33.520Z,7.20
2022-12-25T04:46:02.802Z,7.37
2022-12-25T04:48:33.046Z,7.53
2022-12-25T04:51:16.058Z,10.27
2022-12-25T04:53:44.142Z,6.00
2022-12-25T04:56:12.336Z,5.30
2022-12-25T04:58:40.043Z,8.47
2022-12-25T05:01:07.857Z,6.82
2022-12-25T05:03:36.027Z,7.68
2022-12-25T05:06:04.023Z,7.40
2022-12-25T05:08:33.550Z,11.18
2022-12-25T05:11:09.025Z,7.27
2022-12-25T05:13:37.481Z,9.07
2022-12-25T05:16:10.167Z,8.07
2022-12-25T05:18:37.872Z,7.57
2022-12-25T05:21:06.103Z,7.12
2022-12-25T05:23:34.157Z,6.70
2022-12-25T05:26:06.320Z,8.75
2022-12-25T05:28:35.384Z,7.62
2022-12-25T05:31:03.090Z,9.88
2022-12-25T05:33:30.659Z,6.95
2022-12-25T05:35:58.681Z,6.70
2022-12-25T05:38:26.438Z,5.95
2022-12-25T05:40:53.969Z,10.63
2022-12-25T05:43:21.884Z,7.78
2022-12-25T05:45:49.626Z,8.13
2022-12-25T05:48:17.882Z,7.90
2022-12-25T05:50:45.724Z,6.93
2022-12-25T05:53:14.830Z,8.75
2022-12-25T05:55:46.068Z,8.73
2022-12-25T05:58:13.926Z,10.15
2022-12-25T06:00:43.799Z,8.77
2022-12-25T06:03:11.736Z,12.00
2022-12-25T06:05:39.843Z,10.13
2022-12-25T06:08:07.505Z,9.57
2022-12-25T06:10:36.245Z,6.30
2022-12-25T06:13:03.951Z,5.17
2022-12-25T06:15:31.574Z,5.57
2022-12-25T06:18:02.739Z,8.23
2022-12-25T06:20:30.322Z,6.82
2022-12-25T06:22:58.054Z,8.25
2022-12-25T06:25:25.946Z,6.87
2022-12-25T06:27:53.465Z,10.07
2022-12-25T06:30:20.993Z,7.72
2022-12-25T06:32:48.823Z,6.45
2022-12-25T06:35:16.388Z,9.73
2022-12-25T06:37:43.935Z,8.57
2022-12-25T06:40:13.185Z,6.10
2022-12-25T06:42:40.737Z,5.65
2022-12-25T06:45:08.718Z,8.38
2022-12-25T06:47:39.682Z,9.50
2022-12-25T06:50:07.695Z,9.60
2022-12-25T06:52:35.570Z,7.22
2022-12-25T06:55:03.541Z,6.75
2022-12-25T06:57:31.243Z,9.77
2022-12-25T06:59:58.745Z,7.45
2022-12-25T07:02:26.908Z,10.77
2022-12-25T07:04:54.716Z,21.17
2022-12-25T07:07:23.650Z,12.90
2022-12-25T07:09:51.592Z,12.90
2022-12-25T07:12:21.712Z,13.00
2022-12-25T07:14:54.586Z,11.03
2022-12-25T07:17:23.308Z,10.52
2022-12-25T07:19:51.107Z,8.43
2022-12-25T07:22:18.779Z,14.55
2022-12-25T07:24:46.610Z,8.13
2022-12-25T07:27:14.168Z,10.60
2022-12-25T07:29:41.733Z,7.78
2022-12-25T07:32:09.691Z,11.20
2022-12-25T07:34:37.341Z,7.07
2022-12-25T07:37:04.922Z,7.53
2022-12-25T07:39:34.161Z,11.40
2022-12-25T07:42:01.717Z,9.00
2022-12-25T07:44:29.209Z,8.68
2022-12-25T07:46:57.033Z,6.07
2022-12-25T07:49:24.576Z,9.77
2022-12-25T07:51:52.272Z,7.23
2022-12-25T07:54:20.846Z,5.78
2022-12-25T07:56:52.690Z,9.55
2022-12-25T07:59:20.827Z,7.07
2022-12-25T08:01:50.323Z,4.65
2022-12-25T08:04:18.491Z,7.73
2022-12-25T08:06:46.104Z,7.55
2022-12-25T08:09:13.713Z,5.15
2022-12-25T08:11:46.126Z,7.28
2022-12-25T08:14:14.176Z,6.12
2022-12-25T08:16:42.306Z,6.17
2022-12-25T08:19:10.560Z,7.50
2022-12-25T08:21:38.376Z,8.13
2022-12-25T08:24:06.497Z,11.73
2022-12-25T08:26:34.030Z,10.73
2022-12-25T08:29:01.908Z,6.10
2022-12-25T08:31:30.756Z,8.40
2022-12-25T08:33:59.585Z,6.25
2022-12-25T08:36:27.263Z,6.80
2022-12-25T08:39:02.109Z,7.62
2022-12-25T08:41:31.787Z,7.47
2022-12-25T08:43:59.615Z,7.68
2022-12-25T08:46:27.210Z,14.77
2022-12-25T08:48:56.681Z,17.30
2022-12-25T08:51:25.943Z,13.30
2022-12-25T08:53:59.317Z,14.60
2022-12-25T08:56:27.180Z,13.32
2022-12-25T08:58:55.041Z,19.23
2022-12-25T09:01:22.675Z,15.70
2022-12-25T09:03:50.642Z,17.08
2022-12-25T09:06:18.382Z,15.67
2022-12-25T09:08:49.278Z,13.93
2022-12-25T09:11:19.211Z,26.45
2022-12-25T09:13:47.784Z,23.48
2022-12-25T09:16:18.573Z,22.17
2022-12-25T09:18:46.791Z,23.00
2022-12-25T09:21:15.456Z,23.60
2022-12-25T09:23:43.384Z,24.65
2022-12-25T09:26:13.120Z,24.45
2022-12-25T09:28:46.626Z,19.83
2022-12-25T09:31:18.721Z,19.73
2022-12-25T09:33:46.311Z,17.73
2022-12-25T09:36:13.947Z,18.95
2022-12-25T09:38:41.768Z,18.52
2022-12-25T09:41:15.565Z,16.25
2022-12-25T09:43:57.015Z,18.77
2022-12-25T09:46:33.063Z,21.37
2022-12-25T09:49:22.516Z,15.13
2022-12-25T09:51:53.754Z,14.85
2022-12-25T09:54:27.212Z,16.45
2022-12-25T09:56:54.765Z,16.73
2022-12-25T09:59:27.314Z,18.27
2022-12-25T10:01:58.047Z,14.70
2022-12-25T10:05:03.641Z,16.55
2022-12-25T10:07:41.898Z,14.55
2022-12-25T10:10:39.333Z,15.83
2022-12-25T10:13:37.930Z,14.63
2022-12-25T10:16:32.574Z,13.95
2022-12-25T10:19:15.289Z,15.73
2022-12-25T10:21:43.422Z,13.80
2022-12-25T10:24:20.538Z,16.43
2022-12-25T10:26:50.476Z,12.77
2022-12-25T10:29:22.460Z,13.65
2022-12-25T10:31:54.196Z,16.98
2022-12-25T10:34:22.279Z,14.73
2022-12-25T10:36:50.814Z,9.47
2022-12-25T10:39:24.641Z,12.50
2022-12-25T10:42:23.659Z,12.32
2022-12-25T10:45:10.033Z,12.77
2022-12-25T10:47:41.994Z,10.93
2022-12-25T10:50:17.549Z,7.27
2022-12-25T10:52:56.489Z,9.93
2022-12-25T10:55:28.773Z,10.02
2022-12-25T10:57:58.605Z,8.10
2022-12-25T11:00:29.196Z,9.63
2022-12-25T11:02:57.832Z,10.10
2022-12-25T11:05:31.325Z,11.12
2022-12-25T11:08:01.197Z,8.80
2022-12-25T11:10:44.263Z,10.70
2022-12-25T11:13:27.129Z,9.93
2022-12-25T11:16:06.043Z,11.53
2022-12-25T11:18:44.530Z,10.05
2022-12-25T11:21:35.038Z,10.27
2022-12-25T11:24:05.446Z,11.70
2022-12-25T11:26:59.643Z,12.18
2022-12-25T11:29:46.914Z,7.20
2022-12-25T11:32:21.195Z,5.82
2022-12-25T11:34:49.724Z,10.75
2022-12-25T11:37:38.585Z,8.32
2022-12-25T11:40:07.344Z,8.02
2022-12-25T11:42:35.875Z,6.20
2022-12-25T11:45:12.443Z,10.07
2022-12-25T11:47:45.793Z,7.97
2022-12-25T11:50:13.274Z,6.78
2022-12-25T11:52:44.456Z,9.27
2022-12-25T11:55:22.345Z,10.80
2022-12-25T11:57:56.257Z,11.00
2022-12-25T12:00:24.054Z,12.27
2022-12-25T12:02:59.674Z,8.32
2022-12-25T12:05:45.660Z,16.95
2022-12-25T12:08:14.450Z,13.17
2022-12-25T12:10:41.928Z,8.43
2022-12-25T12:13:21.301Z,10.88
2022-12-25T12:15:50.276Z,11.52
2022-12-25T12:18:20.793Z,10.85
2022-12-25T12:21:06.945Z,11.83
2022-12-25T12:23:50.158Z,12.68
2022-12-25T12:26:22.881Z,9.10
2022-12-25T12:28:52.379Z,12.65
2022-12-25T12:31:20.157Z,10.73
2022-12-25T12:33:53.980Z,11.63
2022-12-25T12:36:35.700Z,10.60
2022-12-25T12:39:05.907Z,9.73
2022-12-25T12:41:47.684Z,14.75
2022-12-25T12:44:16.620Z,11.80
2022-12-25T12:46:56.388Z,9.83
2022-12-25T12:49:25.052Z,12.45
2022-12-25T12:52:05.156Z,9.48
2022-12-25T12:54:33.028Z,7.62
2022-12-25T12:57:06.811Z,7.93
2022-12-25T12:59:46.845Z,9.07
2022-12-25T13:02:39.734Z,10.02
2022-12-25T13:05:18.961Z,9.45
2022-12-25T13:07:59.901Z,11.65
2022-12-25T13:10:33.605Z,11.82
2022-12-25T13:13:18.137Z,8.13
2022-12-25T13:15:48.267Z,8.95
2022-12-25T13:18:20.633Z,11.05
2022-12-25T13:20:57.054Z,10.35
2022-12-25T13:23:29.146Z,12.15
2022-12-25T13:25:59.886Z,9.67
2022-12-25T13:28:33.723Z,13.75
2022-12-25T13:31:11.917Z,10.50
2022-12-25T13:33:40.845Z,12.20
2022-12-25T13:36:12.777Z,11.23
2022-12-25T13:38:48.965Z,9.13
2022-12-25T13:41:42.169Z,9.93
2022-12-25T13:44:19.243Z,7.57
2022-12-25T13:46:49.939Z,10.65
2022-12-25T13:49:22.152Z,7.40
2022-12-25T13:51:50.557Z,7.83
2022-12-25T13:54:18.870Z,11.82
2022-12-25T13:56:54.587Z,10.10
2022-12-25T13:59:23.483Z,8.27
2022-12-25T14:01:52.361Z,14.55
2022-12-25T14:04:23.641Z,7.63
2022-12-25T14:06:52.331Z,6.12
2022-12-25T14:09:20.399Z,9.45
2022-12-25T14:11:52.337Z,6.78
2022-12-25T14:14:22.730Z,7.97
2022-12-25T14:16:53.550Z,7.50
2022-12-25T14:19:32.652Z,6.22
2022-12-25T14:22:20.868Z,8.07
2022-12-25T14:24:48.943Z,8.70
2022-12-25T14:27:24.997Z,8.65
2022-12-25T14:29:55.649Z,10.07
2022-12-25T14:32:25.348Z,7.30
2022-12-25T14:34:55.833Z,7.20
2022-12-25T14:37:26.677Z,8.38
2022-12-25T14:39:59.878Z,6.55
2022-12-25T14:42:29.795Z,8.27
2022-12-25T14:45:08.284Z,8.43
2022-12-25T14:47:56.533Z,8.23
2022-12-25T14:51:00.801Z,7.40
2022-12-25T14:53:40.836Z,5.78
2022-12-25T14:56:10.244Z,6.63
2022-12-25T14:58:41.710Z,12.40
2022-12-25T15:01:30.106Z,7.85
2022-12-25T15:04:14.261Z,8.80
2022-12-25T15:06:55.155Z,9.30
2022-12-25T15:09:23.686Z,9.00
2022-12-25T15:11:53.151Z,8.32
2022-12-25T15:14:20.650Z,9.70
2022-12-25T15:16:50.793Z,8.75
2022-12-25T15:19:34.820Z,11.18
2022-12-25T15:22:04.895Z,8.00
2022-12-25T15:24:32.725Z,9.00
2022-12-25T15:27:00.895Z,9.07
2022-12-25T15:32:22.511Z,10.57
2022-12-25T15:34:52.909Z,10.87
2022-12-25T15:37:20.732Z,9.70
2022-12-25T15:39:48.315Z,9.57
2022-12-25T15:42:19.520Z,11.23
2022-12-25T15:44:47.656Z,11.98
2022-12-25T15:47:16.440Z,10.63
2022-12-25T15:49:44.001Z,13.65
2022-12-25T15:52:14.405Z,10.07
2022-12-25T15:54:42.147Z,15.35
2022-12-25T15:57:16.970Z,13.95
2022-12-25T15:59:45.035Z,13.20
2022-12-25T16:02:19.740Z,15.63
2022-12-25T16:04:48.909Z,13.65
2022-12-25T16:07:19.590Z,15.55
2022-12-25T16:09:47.360Z,13.25
2022-12-25T16:12:15.438Z,16.27
2022-12-25T16:14:43.000Z,13.00
2022-12-25T16:17:16.913Z,20.98
2022-12-25T16:19:45.295Z,15.95
2022-12-25T16:22:25.601Z,12.60
2022-12-25T16:24:53.834Z,13.13
2022-12-25T16:27:21.884Z,15.90
2022-12-25T16:29:49.592Z,18.15
2022-12-25T16:32:17.506Z,13.32
2022-12-25T16:34:45.073Z,16.27
2022-12-25T16:37:12.540Z,13.57
2022-12-25T16:39:40.359Z,14.50
2022-12-25T16:42:09.037Z,10.48
2022-12-25T16:44:37.825Z,12.57
2022-12-25T16:47:05.744Z,13.55
2022-12-25T16:49:33.573Z,20.67
2022-12-25T16:52:01.251Z,13.77
2022-12-25T16:54:29.197Z,11.30
2022-12-25T16:56:56.816Z,13.85
2022-12-25T16:59:24.434Z,12.50
2022-12-25T17:01:52.445Z,14.83
2022-12-25T17:04:20.035Z,11.02
2022-12-25T17:06:48.804Z,10.95
2022-12-25T17:09:16.687Z,10.57
2022-12-25T17:11:44.404Z,9.77
2022-12-25T17:14:12.018Z,9.60
2022-12-25T17:16:40.617Z,12.10
2022-12-25T17:19:15.983Z,10.57
2022-12-25T17:21:43.841Z,11.30
2022-12-25T17:24:11.328Z,12.35
2022-12-25T17:26:40.699Z,10.63
2022-12-25T17:29:08.737Z,10.60
2022-12-25T17:31:36.636Z,13.82
2022-12-25T17:34:04.947Z,12.13
2022-12-25T17:36:32.902Z,13.60
2022-12-25T17:39:01.631Z,14.80
2022-12-25T17:41:29.402Z,15.60
2022-12-25T17:43:57.312Z,10.63
2022-12-25T17:46:28.472Z,13.02
2022-12-25T17:48:57.774Z,12.57
2022-12-25T17:51:26.796Z,14.63
2022-12-25T17:53:56.835Z,13.88
2022-12-25T17:56:25.059Z,17.62
2022-12-25T17:58:54.929Z,14.32
2022-12-25T18:01:24.234Z,13.68
2022-12-25T18:03:52.892Z,13.43
2022-12-25T18:06:23.836Z,13.98
2022-12-25T18:08:51.812Z,13.82
2022-12-25T18:11:23.245Z,11.25
2022-12-25T18:13:52.408Z,15.15
2022-12-25T18:16:24.264Z,14.77
2022-12-25T18:18:53.080Z,12.40
2022-12-25T18:21:22.273Z,15.40
2022-12-25T18:23:50.674Z,16.98
2022-12-25T18:26:19.145Z,13.95
2022-12-25T18:28:48.718Z,11.73
2022-12-25T18:31:21.930Z,13.02
2022-12-25T18:33:50.645Z,12.65
2022-12-25T18:36:21.255Z,15.07
2022-12-25T18:38:50.599Z,11.73
2022-12-25T18:41:19.686Z,13.80
2022-12-25T18:43:52.427Z,13.73
2022-12-25T18:46:27.725Z,15.07
2022-12-25T18:48:56.841Z,16.00
2022-12-25T18:51:25.153Z,18.92
2022-12-25T18:53:54.855Z,17.47
2022-12-25T18:56:23.711Z,17.95
2022-12-25T18:58:51.949Z,12.90
2022-12-25T19:01:22.526Z,17.23
2022-12-25T19:03:51.329Z,12.93
2022-12-25T19:06:25.273Z,14.83
2022-12-25T19:08:53.638Z,13.05
2022-12-25T19:11:22.070Z,15.98
2022-12-25T19:13:49.642Z,21.42
2022-12-25T19:16:17.826Z,11.23
2022-12-25T19:18:46.248Z,12.70
2022-12-25T19:21:13.927Z,11.60
2022-12-25T19:23:42.025Z,14.85
2022-12-25T19:26:10.430Z,13.15
2022-12-25T19:28:39.683Z,12.90
2022-12-25T19:31:09.089Z,9.77
2022-12-25T19:33:40.652Z,13.25
2022-12-25T19:36:11.917Z,9.88
2022-12-25T19:38:40.261Z,10.63
2022-12-25T19:41:18.426Z,13.00
2022-12-25T19:43:49.775Z,12.47
2022-12-25T19:46:23.592Z,13.27
2022-12-25T19:48:52.695Z,13.57
2022-12-25T19:51:24.508Z,10.25
2022-12-25T19:53:53.666Z,11.95
2022-12-25T19:56:21.388Z,12.07
2022-12-25T19:58:49.067Z,15.00
2022-12-25T20:01:19.105Z,16.95
2022-12-25T20:03:48.620Z,13.32
2022-12-25T20:06:23.267Z,15.70
2022-12-25T20:08:54.383Z,13.10
2022-12-25T20:11:23.718Z,14.65
2022-12-25T20:13:51.901Z,15.73
2022-12-25T20:16:19.770Z,17.70
2022-12-25T20:18:47.670Z,13.43
2022-12-25T20:21:18.952Z,19.23
2022-12-25T20:23:48.220Z,13.68
2022-12-25T20:26:17.567Z,14.75
2022-12-25T20:28:45.970Z,12.73
2022-12-25T20:31:22.334Z,16.62
2022-12-25T20:33:50.533Z,12.93
2022-12-25T20:36:18.973Z,14.23
2022-12-25T20:38:46.749Z,12.55
2022-12-25T20:41:26.826Z,13.35
2022-12-25T20:43:55.930Z,16.73
2022-12-25T20:46:24.973Z,16.90
2022-12-25T20:48:53.388Z,12.40
2022-12-25T20:51:23.074Z,14.05
2022-12-25T20:53:51.340Z,13.98
2022-12-25T20:56:21.164Z,16.55
2022-12-25T20:58:53.537Z,16.30
2022-12-25T21:01:22.284Z,17.37
2022-12-25T21:03:50.276Z,17.73
2022-12-25T21:06:17.950Z,14.57
2022-12-25T21:08:46.299Z,15.48
2022-12-25T21:11:15.667Z,13.97
2022-12-25T21:13:45.227Z,16.12
2022-12-25T21:16:16.672Z,13.18
2022-12-25T21:18:44.618Z,15.13
2022-12-25T21:21:12.590Z,15.82
2022-12-25T21:23:40.653Z,13.50
2022-12-25T21:26:27.187Z,15.10
2022-12-25T21:28:57.927Z,17.12
2022-12-25T21:31:26.163Z,14.90
2022-12-25T21:33:55.267Z,17.98
2022-12-25T21:36:29.751Z,14.43
2022-12-25T21:38:58.431Z,17.42
2022-12-25T21:41:27.683Z,18.17
2022-12-25T21:43:56.273Z,18.00
2022-12-25T21:46:24.470Z,18.48
2022-12-25T21:48:52.767Z,21.07
2022-12-25T21:51:42.042Z,15.30
2022-12-25T21:54:10.956Z,24.08
2022-12-25T21:56:44.587Z,15.15
2022-12-25T21:59:17.003Z,16.10
2022-12-25T22:01:45.356Z,16.70
2022-12-25T22:04:14.497Z,19.08
2022-12-25T22:07:01.175Z,17.45
2022-12-25T22:09:29.538Z,14.38
2022-12-25T22:12:16.648Z,19.90
2022-12-25T22:14:54.925Z,19.23
2022-12-25T22:17:46.856Z,14.77
2022-12-25T22:20:16.023Z,19.85
2022-12-25T22:22:44.148Z,16.52
2022-12-25T22:25:12.265Z,18.08
2022-12-25T22:27:41.515Z,14.57
2022-12-25T22:30:13.187Z,16.45
2022-12-25T22:32:41.055Z,16.08
2022-12-25T22:35:09.384Z,16.58
2022-12-25T22:37:38.728Z,15.93
2022-12-25T22:40:08.956Z,15.57
2022-12-25T22:42:36.533Z,13.00
2022-12-25T22:45:05.213Z,16.95
2022-12-25T22:47:33.150Z,13.60
2022-12-25T22:50:01.409Z,15.30
2022-12-25T22:52:28.990Z,16.77
2022-12-25T22:54:56.746Z,18.23
2022-12-25T22:57:24.351Z,11.63
2022-12-25T22:59:53.015Z,13.57
2022-12-25T23:02:21.338Z,15.05
2022-12-25T23:04:49.047Z,14.20
2022-12-25T23:07:16.867Z,13.48
2022-12-25T23:09:45.403Z,17.48
2022-12-25T23:12:33.040Z,21.73
2022-12-25T23:15:00.859Z,16.75
2022-12-25T23:17:47.151Z,15.10
2022-12-25T23:20:33.627Z,12.55
2022-12-25T23:23:20.551Z,13.45
2022-12-25T23:26:06.918Z,12.95
2022-12-25T23:28:57.593Z,16.75
2022-12-25T23:31:35.756Z,15.07
2022-12-25T23:34:05.226Z,16.95
2022-12-25T23:36:33.705Z,15.40
2022-12-25T23:39:09.040Z,14.82
2022-12-25T23:41:39.724Z,17.08
2022-12-25T23:44:07.725Z,16.17
2022-12-25T23:46:35.578Z,20.23
2022-12-25T23:49:03.973Z,14.77
2022-12-25T23:51:32.297Z,16.52
2022-12-25T23:53:59.882Z,12.90
2022-12-25T23:56:27.850Z,13.73
2022-12-25T23:58:55.450Z,19.45
